sensor_id;sensor_type;location;lat;lon;timestamp;pressure;altitude;pressure_sealevel;temperature;humidity
21742;BME280;11033;47.490;11.116;2023-02-13T00:01:04;94795.66;;;0.76;69.95
21742;BME280;11033;47.490;11.116;2023-02-13T00:03:29;94796.69;;;0.74;70.78
21742;BME280;11033;47.490;11.116;2023-02-13T00:05:55;94795.94;;;0.72;70.77
21742;BME280;11033;47.490;11.116;2023-02-13T00:08:20;94792.78;;;0.67;71.00
21742;BME280;11033;47.490;11.116;2023-02-13T00:10:45;94781.63;;;0.64;71.30
21742;BME280;11033;47.490;11.116;2023-02-13T00:13:11;94786.31;;;0.74;70.60
21742;BME280;11033;47.490;11.116;2023-02-13T00:15:36;94784.66;;;0.73;69.07
21742;BME280;11033;47.490;11.116;2023-02-13T00:18:01;94785.16;;;0.63;71.04
21742;BME280;11033;47.490;11.116;2023-02-13T00:20:26;94789.22;;;0.53;72.18
21742;BME280;11033;47.490;11.116;2023-02-13T00:22:51;94781.06;;;0.59;71.11
21742;BME280;11033;47.490;11.116;2023-02-13T00:25:17;94781.63;;;0.64;70.33
21742;BME280;11033;47.490;11.116;2023-02-13T00:27:42;94781.44;;;0.53;72.36
21742;BME280;11033;47.490;11.116;2023-02-13T00:30:07;94774.97;;;0.60;69.87
21742;BME280;11033;47.490;11.116;2023-02-13T00:32:32;94785.09;;;0.65;70.87
21742;BME280;11033;47.490;11.116;2023-02-13T00:34:58;94779.66;;;0.70;71.08
21742;BME280;11033;47.490;11.116;2023-02-13T00:37:23;94780.19;;;0.75;70.12
21742;BME280;11033;47.490;11.116;2023-02-13T00:39:49;94788.16;;;0.72;69.86
21742;BME280;11033;47.490;11.116;2023-02-13T00:42:14;94789.19;;;0.69;69.30
21742;BME280;11033;47.490;11.116;2023-02-13T00:44:39;94782.97;;;0.72;69.93
21742;BME280;11033;47.490;11.116;2023-02-13T00:47:04;94783.16;;;0.69;70.42
21742;BME280;11033;47.490;11.116;2023-02-13T00:49:29;94774.13;;;0.60;70.21
21742;BME280;11033;47.490;11.116;2023-02-13T00:51:54;94775.50;;;0.51;70.91
21742;BME280;11033;47.490;11.116;2023-02-13T00:54:20;94778.38;;;0.47;71.12
21742;BME280;11033;47.490;11.116;2023-02-13T00:56:45;94768.00;;;0.47;70.58
21742;BME280;11033;47.490;11.116;2023-02-13T00:59:10;94769.00;;;0.44;71.38
21742;BME280;11033;47.490;11.116;2023-02-13T01:01:35;94768.66;;;0.50;70.11
21742;BME280;11033;47.490;11.116;2023-02-13T01:04:00;94766.81;;;0.52;69.93
21742;BME280;11033;47.490;11.116;2023-02-13T01:06:26;94764.19;;;0.38;70.36
21742;BME280;11033;47.490;11.116;2023-02-13T01:08:51;94761.22;;;0.30;71.72
21742;BME280;11033;47.490;11.116;2023-02-13T01:11:16;94759.19;;;0.35;71.45
21742;BME280;11033;47.490;11.116;2023-02-13T01:13:43;94760.38;;;0.29;72.38
21742;BME280;11033;47.490;11.116;2023-02-13T01:16:08;94769.19;;;0.41;72.44
21742;BME280;11033;47.490;11.116;2023-02-13T01:18:33;94769.19;;;0.41;71.92
21742;BME280;11033;47.490;11.116;2023-02-13T01:20:59;94762.81;;;0.47;71.75
21742;BME280;11033;47.490;11.116;2023-02-13T01:23:25;94762.81;;;0.47;71.79
21742;BME280;11033;47.490;11.116;2023-02-13T01:25:50;94768.00;;;0.47;72.04
21742;BME280;11033;47.490;11.116;2023-02-13T01:28:16;94768.09;;;0.45;70.72
21742;BME280;11033;47.490;11.116;2023-02-13T01:30:41;94764.22;;;0.52;70.23
21742;BME280;11033;47.490;11.116;2023-02-13T01:33:06;94758.28;;;0.50;70.56
21742;BME280;11033;47.490;11.116;2023-02-13T01:35:31;94749.78;;;0.48;72.06
21742;BME280;11033;47.490;11.116;2023-02-13T01:37:56;94764.03;;;0.55;68.94
21742;BME280;11033;47.490;11.116;2023-02-13T01:40:22;94759.38;;;0.46;70.17
21742;BME280;11033;47.490;11.116;2023-02-13T01:42:47;94763.44;;;0.36;70.64
21742;BME280;11033;47.490;11.116;2023-02-13T01:45:20;94757.72;;;0.45;70.72
21742;BME280;11033;47.490;11.116;2023-02-13T01:47:50;94752.16;;;0.37;72.06
21742;BME280;11033;47.490;11.116;2023-02-13T01:52:46;94757.91;;;0.42;70.08
21742;BME280;11033;47.490;11.116;2023-02-13T01:55:13;94756.81;;;0.46;72.26
21742;BME280;11033;47.490;11.116;2023-02-13T01:57:38;94746.78;;;0.40;72.61
21742;BME280;11033;47.490;11.116;2023-02-13T02:00:08;94760.31;;;0.45;72.07
21742;BME280;11033;47.490;11.116;2023-02-13T02:02:35;94756.25;;;0.55;70.29
21742;BME280;11033;47.490;11.116;2023-02-13T02:05:02;94757.47;;;0.50;70.22
21742;BME280;11033;47.490;11.116;2023-02-13T02:07:28;94765.72;;;0.56;70.74
21742;BME280;11033;47.490;11.116;2023-02-13T02:09:55;94762.75;;;0.62;69.67
21742;BME280;11033;47.490;11.116;2023-02-13T02:14:48;94758.09;;;0.53;70.50
21742;BME280;11033;47.490;11.116;2023-02-13T02:17:13;94767.53;;;0.40;72.09
21742;BME280;11033;47.490;11.116;2023-02-13T02:19:40;94764.53;;;0.32;71.95
21742;BME280;11033;47.490;11.116;2023-02-13T02:34:46;94758.63;;;0.30;71.75
21742;BME280;11033;47.490;11.116;2023-02-13T02:37:31;94767.88;;;0.34;71.17
21742;BME280;11033;47.490;11.116;2023-02-13T02:40:23;94765.69;;;0.42;70.99
21742;BME280;11033;47.490;11.116;2023-02-13T02:42:58;94771.03;;;0.39;70.44
21742;BME280;11033;47.490;11.116;2023-02-13T02:51:06;94768.72;;;0.35;71.64
21742;BME280;11033;47.490;11.116;2023-02-13T02:53:37;94776.78;;;0.44;70.61
21742;BME280;11033;47.490;11.116;2023-02-13T02:58:43;94771.41;;;0.33;72.33
21742;BME280;11033;47.490;11.116;2023-02-13T03:01:29;94775.66;;;0.34;70.64
21742;BME280;11033;47.490;11.116;2023-02-13T03:04:16;94775.09;;;0.29;71.36
21742;BME280;11033;47.490;11.116;2023-02-13T03:07:03;94774.16;;;0.30;69.40
21742;BME280;11033;47.490;11.116;2023-02-13T03:09:31;94781.28;;;0.26;70.45
21742;BME280;11033;47.490;11.116;2023-02-13T03:12:19;94783.34;;;0.06;74.05
21742;BME280;11033;47.490;11.116;2023-02-13T03:15:05;94783.75;;;0.14;72.29
21742;BME280;11033;47.490;11.116;2023-02-13T03:17:30;94784.84;;;-0.22;74.84
21742;BME280;11033;47.490;11.116;2023-02-13T03:23:15;94787.75;;;-0.12;73.07
21742;BME280;11033;47.490;11.116;2023-02-13T03:28:26;94789.38;;;-0.57;77.00
21742;BME280;11033;47.490;11.116;2023-02-13T03:31:22;94795.97;;;-0.36;74.44
21742;BME280;11033;47.490;11.116;2023-02-13T03:33:54;94792.28;;;-0.47;74.88
21742;BME280;11033;47.490;11.116;2023-02-13T03:42:11;94807.91;;;-0.33;72.48
21742;BME280;11033;47.490;11.116;2023-02-13T03:44:47;94806.72;;;-0.59;74.61
21742;BME280;11033;47.490;11.116;2023-02-13T03:47:34;94798.69;;;-0.70;74.93
21742;BME280;11033;47.490;11.116;2023-02-13T03:49:59;94800.59;;;-0.74;75.16
21742;BME280;11033;47.490;11.116;2023-02-13T03:52:38;94807.00;;;-0.81;74.64
21742;BME280;11033;47.490;11.116;2023-02-13T03:55:08;94813.53;;;-0.74;73.57
21742;BME280;11033;47.490;11.116;2023-02-13T03:57:55;94814.19;;;-0.86;76.23
21742;BME280;11033;47.490;11.116;2023-02-13T04:00:46;94820.63;;;-1.10;78.35
21742;BME280;11033;47.490;11.116;2023-02-13T04:03:25;94819.56;;;-1.06;78.79
21742;BME280;11033;47.490;11.116;2023-02-13T04:06:08;94821.50;;;-0.94;76.51
21742;BME280;11033;47.490;11.116;2023-02-13T04:08:34;94833.84;;;-0.99;76.79
21742;BME280;11033;47.490;11.116;2023-02-13T04:11:03;94827.50;;;-1.26;79.45
21742;BME280;11033;47.490;11.116;2023-02-13T04:13:33;94828.25;;;-0.91;75.37
21742;BME280;11033;47.490;11.116;2023-02-13T04:16:20;94836.50;;;-1.01;76.34
21742;BME280;11033;47.490;11.116;2023-02-13T04:18:44;94837.56;;;-1.05;75.77
21742;BME280;11033;47.490;11.116;2023-02-13T04:21:09;94845.50;;;-1.25;78.10
21742;BME280;11033;47.490;11.116;2023-02-13T04:23:34;94840.41;;;-1.26;78.14
21742;BME280;11033;47.490;11.116;2023-02-13T04:26:01;94839.13;;;-1.18;77.47
21742;BME280;11033;47.490;11.116;2023-02-13T04:28:27;94843.91;;;-1.27;77.92
21742;BME280;11033;47.490;11.116;2023-02-13T04:30:52;94839.13;;;-1.18;75.55
21742;BME280;11033;47.490;11.116;2023-02-13T04:33:18;94837.66;;;-1.06;74.63
21742;BME280;11033;47.490;11.116;2023-02-13T04:35:43;94835.25;;;-1.26;75.99
21742;BME280;11033;47.490;11.116;2023-02-13T04:38:08;94840.03;;;-1.36;77.03
21742;BME280;11033;47.490;11.116;2023-02-13T04:40:33;94836.16;;;-1.27;76.09
21742;BME280;11033;47.490;11.116;2023-02-13T04:42:59;94843.91;;;-1.27;74.90
21742;BME280;11033;47.490;11.116;2023-02-13T04:45:24;94840.25;;;-1.41;76.84
21742;BME280;11033;47.490;11.116;2023-02-13T04:47:53;94832.66;;;-1.44;77.22
21742;BME280;11033;47.490;11.116;2023-02-13T04:50:19;94829.31;;;-1.46;76.17
21742;BME280;11033;47.490;11.116;2023-02-13T04:52:44;94835.25;;;-1.44;77.09
21742;BME280;11033;47.490;11.116;2023-02-13T04:55:10;94838.72;;;-1.45;78.01
21742;BME280;11033;47.490;11.116;2023-02-13T04:57:35;94850.44;;;-1.55;78.42
21742;BME280;11033;47.490;11.116;2023-02-13T05:00:00;94853.63;;;-1.67;79.19
21742;BME280;11033;47.490;11.116;2023-02-13T05:02:26;94851.31;;;-1.90;81.67
21742;BME280;11033;47.490;11.116;2023-02-13T05:04:51;94855.97;;;-1.80;80.53
21742;BME280;11033;47.490;11.116;2023-02-13T05:07:16;94851.88;;;-1.67;79.75
21742;BME280;11033;47.490;11.116;2023-02-13T05:09:41;94861.06;;;-1.61;77.88
21742;BME280;11033;47.490;11.116;2023-02-13T05:12:06;94859.09;;;-1.56;76.89
21742;BME280;11033;47.490;11.116;2023-02-13T05:14:32;94863.94;;;-1.84;79.32
21742;BME280;11033;47.490;11.116;2023-02-13T05:16:57;94867.75;;;-1.57;76.21
21742;BME280;11033;47.490;11.116;2023-02-13T05:19:22;94861.50;;;-1.70;76.94
21742;BME280;11033;47.490;11.116;2023-02-13T05:21:47;94859.53;;;-1.65;75.62
21742;BME280;11033;47.490;11.116;2023-02-13T05:24:31;94870.63;;;-1.80;77.92
21742;BME280;11033;47.490;11.116;2023-02-13T05:26:56;94868.03;;;-1.80;77.15
21742;BME280;11033;47.490;11.116;2023-02-13T05:29:21;94856.72;;;-1.78;78.05
21742;BME280;11033;47.490;11.116;2023-02-13T05:34:15;94869.25;;;-1.87;78.86
21742;BME280;11033;47.490;11.116;2023-02-13T05:36:40;94863.78;;;-1.81;77.37
21742;BME280;11033;47.490;11.116;2023-02-13T05:39:06;94864.69;;;-1.82;77.97
21742;BME280;11033;47.490;11.116;2023-02-13T05:41:31;94864.50;;;-1.97;79.66
21742;BME280;11033;47.490;11.116;2023-02-13T05:43:56;94873.91;;;-1.96;79.22
21742;BME280;11033;47.490;11.116;2023-02-13T05:46:22;94868.19;;;-1.83;75.89
21742;BME280;11033;47.490;11.116;2023-02-13T05:48:47;94858.28;;;-1.93;77.66
21742;BME280;11033;47.490;11.116;2023-02-13T05:51:12;94865.28;;;-1.95;77.34
21742;BME280;11033;47.490;11.116;2023-02-13T05:53:37;94861.56;;;-2.08;78.84
21742;BME280;11033;47.490;11.116;2023-02-13T05:56:03;94855.72;;;-2.11;78.93
21742;BME280;11033;47.490;11.116;2023-02-13T05:58:29;94855.44;;;-2.05;78.19
21742;BME280;11033;47.490;11.116;2023-02-13T06:00:55;94849.38;;;-2.04;78.77
21742;BME280;11033;47.490;11.116;2023-02-13T06:03:20;94851.88;;;-2.03;78.67
21742;BME280;11033;47.490;11.116;2023-02-13T06:05:45;94849.03;;;-2.15;80.67
21742;BME280;11033;47.490;11.116;2023-02-13T06:08:11;94847.47;;;-2.01;78.39
21742;BME280;11033;47.490;11.116;2023-02-13T06:10:36;94858.81;;;-2.22;80.44
21742;BME280;11033;47.490;11.116;2023-02-13T06:13:01;94848.81;;;-2.11;79.59
21742;BME280;11033;47.490;11.116;2023-02-13T06:15:26;94854.19;;;-2.15;80.77
21742;BME280;11033;47.490;11.116;2023-02-13T06:17:51;94850.28;;;-2.05;79.00
21742;BME280;11033;47.490;11.116;2023-02-13T06:20:16;94855.06;;;-1.98;78.72
21742;BME280;11033;47.490;11.116;2023-02-13T06:22:42;94854.16;;;-1.97;78.18
21742;BME280;11033;47.490;11.116;2023-02-13T06:25:07;94857.66;;;-1.98;79.21
21742;BME280;11033;47.490;11.116;2023-02-13T06:27:32;94862.13;;;-2.01;80.08
21742;BME280;11033;47.490;11.116;2023-02-13T06:29:57;94860.72;;;-1.89;77.19
21742;BME280;11033;47.490;11.116;2023-02-13T06:32:23;94850.56;;;-1.75;77.40
21742;BME280;11033;47.490;11.116;2023-02-13T06:34:48;94850.88;;;-1.81;78.58
21742;BME280;11033;47.490;11.116;2023-02-13T06:37:13;94849.13;;;-1.81;78.64
21742;BME280;11033;47.490;11.116;2023-02-13T06:39:38;94854.97;;;-1.77;77.69
21742;BME280;11033;47.490;11.116;2023-02-13T06:42:03;94851.94;;;-1.85;79.67
21742;BME280;11033;47.490;11.116;2023-02-13T06:44:28;94858.78;;;-1.67;79.26
21742;BME280;11033;47.490;11.116;2023-02-13T06:46:54;94863.81;;;-1.64;77.48
21742;BME280;11033;47.490;11.116;2023-02-13T06:49:19;94864.72;;;-1.65;77.79
21742;BME280;11033;47.490;11.116;2023-02-13T06:51:44;94861.53;;;-1.53;77.05
21742;BME280;11033;47.490;11.116;2023-02-13T06:54:09;94867.31;;;-1.48;75.84
21742;BME280;11033;47.490;11.116;2023-02-13T06:56:34;94872.47;;;-1.48;76.37
21742;BME280;11033;47.490;11.116;2023-02-13T06:58:59;94861.53;;;-1.36;77.33
21742;BME280;11033;47.490;11.116;2023-02-13T07:01:25;94868.22;;;-1.32;77.35
21742;BME280;11033;47.490;11.116;2023-02-13T07:03:50;94865.63;;;-1.32;77.29
21742;BME280;11033;47.490;11.116;2023-02-13T07:06:16;94865.81;;;-1.17;78.16
21742;BME280;11033;47.490;11.116;2023-02-13T07:08:41;94872.66;;;-1.16;77.10
21742;BME280;11033;47.490;11.116;2023-02-13T07:11:06;94863.22;;;-1.17;77.77
21742;BME280;11033;47.490;11.116;2023-02-13T07:13:31;94870.34;;;-1.05;78.27
21742;BME280;11033;47.490;11.116;2023-02-13T07:15:59;94876.03;;;-0.99;78.85
21742;BME280;11033;47.490;11.116;2023-02-13T07:18:24;94878.56;;;-0.97;75.85
21742;BME280;11033;47.490;11.116;2023-02-13T07:20:50;94868.56;;;-0.87;75.72
21742;BME280;11033;47.490;11.116;2023-02-13T07:23:15;94873.94;;;-0.75;75.87
21742;BME280;11033;47.490;11.116;2023-02-13T07:25:41;94882.53;;;-0.74;76.24
21742;BME280;11033;47.490;11.116;2023-02-13T07:28:06;94883.81;;;-0.66;76.60
21742;BME280;11033;47.490;11.116;2023-02-13T07:30:32;94883.69;;;-0.62;76.65
21742;BME280;11033;47.490;11.116;2023-02-13T07:33:03;94880.84;;;-0.58;75.62
21742;BME280;11033;47.490;11.116;2023-02-13T07:35:29;94872.09;;;-0.55;75.49
21742;BME280;11033;47.490;11.116;2023-02-13T07:37:54;94888.28;;;-0.52;76.57
21742;BME280;11033;47.490;11.116;2023-02-13T07:40:20;94885.69;;;-0.52;75.77
21742;BME280;11033;47.490;11.116;2023-02-13T07:42:45;94882.03;;;-0.48;75.50
21742;BME280;11033;47.490;11.116;2023-02-13T07:45:10;94884.06;;;-0.37;76.15
21742;BME280;11033;47.490;11.116;2023-02-13T07:47:36;94887.91;;;-0.28;75.15
21742;BME280;11033;47.490;11.116;2023-02-13T07:50:01;94888.75;;;-0.28;75.29
21742;BME280;11033;47.490;11.116;2023-02-13T07:52:27;94892.59;;;-0.19;74.00
21742;BME280;11033;47.490;11.116;2023-02-13T07:54:52;94895.69;;;-0.13;75.48
21742;BME280;11033;47.490;11.116;2023-02-13T07:57:17;94899.94;;;-0.12;74.46
21742;BME280;11033;47.490;11.116;2023-02-13T07:59:42;94893.34;;;-0.02;72.87
21742;BME280;11033;47.490;11.116;2023-02-13T08:02:11;94901.09;;;-0.02;76.38
21742;BME280;11033;47.490;11.116;2023-02-13T08:04:37;94897.13;;;0.09;75.20
21742;BME280;11033;47.490;11.116;2023-02-13T08:07:02;94900.13;;;0.17;73.59
21742;BME280;11033;47.490;11.116;2023-02-13T08:09:27;94905.97;;;0.20;75.00
21742;BME280;11033;47.490;11.116;2023-02-13T08:12:11;94904.13;;;0.22;73.37
21742;BME280;11033;47.490;11.116;2023-02-13T08:14:36;94912.41;;;0.29;74.87
21742;BME280;11033;47.490;11.116;2023-02-13T08:17:01;94906.31;;;0.30;73.21
21742;BME280;11033;47.490;11.116;2023-02-13T08:19:27;94918.66;;;0.41;72.72
21742;BME280;11033;47.490;11.116;2023-02-13T08:21:52;94915.47;;;0.51;71.90
21742;BME280;11033;47.490;11.116;2023-02-13T08:24:17;94923.00;;;0.56;73.15
21742;BME280;11033;47.490;11.116;2023-02-13T08:26:43;94923.34;;;0.66;74.58
21742;BME280;11033;47.490;11.116;2023-02-13T08:29:08;94921.63;;;0.64;73.37
21742;BME280;11033;47.490;11.116;2023-02-13T08:31:34;94922.31;;;0.68;74.03
21742;BME280;11033;47.490;11.116;2023-02-13T08:33:59;94932.53;;;0.71;73.40
21742;BME280;11033;47.490;11.116;2023-02-13T08:36:24;94926.16;;;0.77;73.02
21742;BME280;11033;47.490;11.116;2023-02-13T08:38:49;94929.50;;;0.79;73.51
21742;BME280;11033;47.490;11.116;2023-02-13T08:41:15;94936.19;;;0.83;73.40
21742;BME280;11033;47.490;11.116;2023-02-13T08:43:42;94931.47;;;0.89;73.95
21742;BME280;11033;47.490;11.116;2023-02-13T08:46:08;94936.31;;;0.95;73.69
21742;BME280;11033;47.490;11.116;2023-02-13T08:48:33;94939.88;;;1.09;73.56
21742;BME280;11033;47.490;11.116;2023-02-13T08:50:58;94935.63;;;1.22;73.49
21742;BME280;11033;47.490;11.116;2023-02-13T08:53:23;94940.81;;;1.52;74.10
21742;BME280;11033;47.490;11.116;2023-02-13T08:55:52;94923.38;;;1.82;72.40
21742;BME280;11033;47.490;11.116;2023-02-13T08:58:18;94931.13;;;2.25;70.69
21742;BME280;11033;47.490;11.116;2023-02-13T09:00:43;94928.25;;;2.30;70.71
21742;BME280;11033;47.490;11.116;2023-02-13T09:03:08;94926.84;;;2.38;70.56
21742;BME280;11033;47.490;11.116;2023-02-13T09:05:33;94932.56;;;2.43;70.63
21742;BME280;11033;47.490;11.116;2023-02-13T09:08:00;94920.97;;;2.76;70.11
21742;BME280;11033;47.490;11.116;2023-02-13T09:10:27;94921.03;;;3.01;68.78
21742;BME280;11033;47.490;11.116;2023-02-13T09:12:52;94920.28;;;3.26;68.93
21742;BME280;11033;47.490;11.116;2023-02-13T09:15:17;94915.09;;;3.39;68.41
21742;BME280;11033;47.490;11.116;2023-02-13T09:18:11;94913.09;;;3.80;67.84
21742;BME280;11033;47.490;11.116;2023-02-13T09:20:37;94902.16;;;6.57;77.09
21742;BME280;11033;47.490;11.116;2023-02-13T09:23:02;94903.47;;;5.03;64.03
21742;BME280;11033;47.490;11.116;2023-02-13T09:25:27;94910.59;;;5.01;64.50
21742;BME280;11033;47.490;11.116;2023-02-13T09:27:53;94903.69;;;5.00;64.61
21742;BME280;11033;47.490;11.116;2023-02-13T09:30:18;94911.44;;;5.37;64.32
21742;BME280;11033;47.490;11.116;2023-02-13T09:32:50;94896.53;;;5.72;63.65
21742;BME280;11033;47.490;11.116;2023-02-13T09:35:17;94901.00;;;5.94;61.46
21742;BME280;11033;47.490;11.116;2023-02-13T09:37:42;94893.50;;;6.12;62.02
21742;BME280;11033;47.490;11.116;2023-02-13T09:40:41;94894.66;;;6.42;61.73
21742;BME280;11033;47.490;11.116;2023-02-13T09:43:27;94893.00;;;6.41;60.95
21742;BME280;11033;47.490;11.116;2023-02-13T09:45:57;94886.50;;;6.78;60.77
21742;BME280;11033;47.490;11.116;2023-02-13T09:48:33;94885.91;;;7.07;58.28
21742;BME280;11033;47.490;11.116;2023-02-13T09:51:00;94880.41;;;7.21;59.41
21742;BME280;11033;47.490;11.116;2023-02-13T09:53:27;94870.63;;;7.64;58.99
21742;BME280;11033;47.490;11.116;2023-02-13T09:56:09;94866.13;;;7.97;58.87
21742;BME280;11033;47.490;11.116;2023-02-13T09:58:44;94862.16;;;8.43;57.47
21742;BME280;11033;47.490;11.116;2023-02-13T10:01:31;94857.81;;;8.92;56.97
21742;BME280;11033;47.490;11.116;2023-02-13T10:06:42;94852.50;;;9.88;52.83
21742;BME280;11033;47.490;11.116;2023-02-13T10:17:31;94839.75;;;12.42;46.78
21742;BME280;11033;47.490;11.116;2023-02-13T10:20:02;94838.31;;;13.06;45.58
21742;BME280;11033;47.490;11.116;2023-02-13T10:22:48;94830.88;;;13.99;46.19
21742;BME280;11033;47.490;11.116;2023-02-13T10:25:25;94831.19;;;12.48;44.48
21742;BME280;11033;47.490;11.116;2023-02-13T10:28:16;94828.66;;;14.35;41.11
21742;BME280;11033;47.490;11.116;2023-02-13T10:31:20;94820.16;;;14.87;43.50
21742;BME280;11033;47.490;11.116;2023-02-13T10:33:51;94825.38;;;15.03;44.02
21742;BME280;11033;47.490;11.116;2023-02-13T10:38:47;94820.53;;;14.45;43.74
21742;BME280;11033;47.490;11.116;2023-02-13T10:44:14;94815.13;;;15.23;42.46
21742;BME280;11033;47.490;11.116;2023-02-13T10:47:14;94824.13;;;13.80;40.87
21742;BME280;11033;47.490;11.116;2023-02-13T10:52:46;94807.31;;;16.05;41.41
21742;BME280;11033;47.490;11.116;2023-02-13T11:00:54;94808.63;;;15.26;38.35
21742;BME280;11033;47.490;11.116;2023-02-13T11:03:23;94806.88;;;14.56;39.19
21742;BME280;11033;47.490;11.116;2023-02-13T11:05:49;94797.97;;;16.09;39.30
21742;BME280;11033;47.490;11.116;2023-02-13T11:10:43;94801.34;;;16.03;40.51
21742;BME280;11033;47.490;11.116;2023-02-13T11:13:23;94800.75;;;15.55;37.84
21742;BME280;11033;47.490;11.116;2023-02-13T11:16:02;94809.22;;;13.63;40.60
21742;BME280;11033;47.490;11.116;2023-02-13T11:18:31;94802.22;;;14.89;40.18
21742;BME280;11033;47.490;11.116;2023-02-13T11:23:57;94792.88;;;14.70;39.17
21742;BME280;11033;47.490;11.116;2023-02-13T11:26:28;94789.56;;;16.35;39.04
21742;BME280;11033;47.490;11.116;2023-02-13T11:28:57;94792.38;;;17.14;37.94
21742;BME280;11033;47.490;11.116;2023-02-13T11:31:36;94792.25;;;17.86;36.82
21742;BME280;11033;47.490;11.116;2023-02-13T11:36:50;94788.41;;;18.57;35.94
21742;BME280;11033;47.490;11.116;2023-02-13T11:39:21;94793.78;;;17.52;36.71
21742;BME280;11033;47.490;11.116;2023-02-13T11:41:47;94794.97;;;17.07;36.67
21742;BME280;11033;47.490;11.116;2023-02-13T11:44:25;94790.56;;;18.06;36.56
21742;BME280;11033;47.490;11.116;2023-02-13T11:46:56;94792.78;;;17.74;35.96
21742;BME280;11033;47.490;11.116;2023-02-13T11:49:25;94791.13;;;18.29;35.49
21742;BME280;11033;47.490;11.116;2023-02-13T11:51:54;94801.03;;;14.91;38.09
21742;BME280;11033;47.490;11.116;2023-02-13T11:54:34;94789.78;;;17.20;36.30
21742;BME280;11033;47.490;11.116;2023-02-13T11:57:19;94788.97;;;17.62;35.99
21742;BME280;11033;47.490;11.116;2023-02-13T11:59:47;94785.00;;;16.94;36.26
21742;BME280;11033;47.490;11.116;2023-02-13T12:04:43;94788.34;;;17.82;36.56
21742;BME280;11033;47.490;11.116;2023-02-13T12:07:24;94784.03;;;17.59;35.71
21742;BME280;11033;47.490;11.116;2023-02-13T12:10:02;94779.06;;;17.14;35.28
21742;BME280;11033;47.490;11.116;2023-02-13T12:12:52;94785.34;;;16.40;36.72
21742;BME280;11033;47.490;11.116;2023-02-13T12:15:23;94782.66;;;16.11;37.76
21742;BME280;11033;47.490;11.116;2023-02-13T12:18:02;94779.69;;;17.37;37.22
21742;BME280;11033;47.490;11.116;2023-02-13T12:20:36;94781.84;;;17.48;35.78
21742;BME280;11033;47.490;11.116;2023-02-13T12:23:23;94776.72;;;19.06;35.55
21742;BME280;11033;47.490;11.116;2023-02-13T12:37:23;94766.19;;;16.96;35.91
21742;BME280;11033;47.490;11.116;2023-02-13T12:40:12;94758.56;;;18.06;34.68
21742;BME280;11033;47.490;11.116;2023-02-13T12:48:41;94761.75;;;16.08;36.98
21742;BME280;11033;47.490;11.116;2023-02-13T12:57:21;94732.84;;;19.68;32.65
21742;BME280;11033;47.490;11.116;2023-02-13T13:02:50;94736.53;;;19.80;34.86
21742;BME280;11033;47.490;11.116;2023-02-13T13:05:30;94733.63;;;20.08;33.09
21742;BME280;11033;47.490;11.116;2023-02-13T13:08:15;94738.97;;;19.49;33.58
21742;BME280;11033;47.490;11.116;2023-02-13T13:14:00;94742.59;;;17.57;35.67
21742;BME280;11033;47.490;11.116;2023-02-13T13:16:51;94729.56;;;19.59;34.14
21742;BME280;11033;47.490;11.116;2023-02-13T13:19:34;94732.00;;;19.81;32.59
21742;BME280;11033;47.490;11.116;2023-02-13T13:27:38;94727.59;;;18.46;34.30
21742;BME280;11033;47.490;11.116;2023-02-13T13:30:40;94725.34;;;18.97;33.84
21742;BME280;11033;47.490;11.116;2023-02-13T13:33:16;94728.13;;;19.57;34.25
21742;BME280;11033;47.490;11.116;2023-02-13T13:35:51;94727.88;;;19.91;32.54
21742;BME280;11033;47.490;11.116;2023-02-13T13:41:00;94724.63;;;19.76;34.39
21742;BME280;11033;47.490;11.116;2023-02-13T13:43:51;94727.81;;;20.38;33.23
21742;BME280;11033;47.490;11.116;2023-02-13T13:46:30;94729.50;;;19.26;33.27
21742;BME280;11033;47.490;11.116;2023-02-13T13:51:48;94732.78;;;19.35;33.72
21742;BME280;11033;47.490;11.116;2023-02-13T14:05:00;94731.84;;;18.82;34.58
21742;BME280;11033;47.490;11.116;2023-02-13T14:07:33;94737.59;;;18.79;34.73
21742;BME280;11033;47.490;11.116;2023-02-13T14:09:58;94733.84;;;18.66;34.77
21742;BME280;11033;47.490;11.116;2023-02-13T14:14:50;94730.72;;;19.30;34.31
21742;BME280;11033;47.490;11.116;2023-02-13T14:22:51;94728.75;;;19.66;34.19
21742;BME280;11033;47.490;11.116;2023-02-13T14:25:27;94731.97;;;19.41;33.67
21742;BME280;11033;47.490;11.116;2023-02-13T14:28:03;94734.91;;;19.59;33.18
21742;BME280;11033;47.490;11.116;2023-02-13T14:30:37;94732.84;;;19.88;33.35
21742;BME280;11033;47.490;11.116;2023-02-13T14:33:21;94734.78;;;20.52;33.02
21742;BME280;11033;47.490;11.116;2023-02-13T14:35:58;94738.56;;;20.24;32.58
21742;BME280;11033;47.490;11.116;2023-02-13T14:38:24;94734.69;;;19.68;34.75
21742;BME280;11033;47.490;11.116;2023-02-13T14:40:51;94733.91;;;18.80;33.77
21742;BME280;11033;47.490;11.116;2023-02-13T14:43:21;94735.31;;;19.83;34.13
21742;BME280;11033;47.490;11.116;2023-02-13T14:45:52;94737.06;;;19.10;33.87
21742;BME280;11033;47.490;11.116;2023-02-13T14:48:19;94730.19;;;19.55;34.61
21742;BME280;11033;47.490;11.116;2023-02-13T14:50:49;94731.63;;;19.57;34.59
21742;BME280;11033;47.490;11.116;2023-02-13T14:53:23;94736.25;;;18.55;34.64
21742;BME280;11033;47.490;11.116;2023-02-13T14:56:05;94729.13;;;18.68;33.76
21742;BME280;11033;47.490;11.116;2023-02-13T14:58:35;94730.53;;;20.18;34.65
21742;BME280;11033;47.490;11.116;2023-02-13T15:01:17;94732.56;;;20.29;33.25
21742;BME280;11033;47.490;11.116;2023-02-13T15:03:53;94733.22;;;19.98;32.00
21742;BME280;11033;47.490;11.116;2023-02-13T15:06:25;94740.25;;;19.86;33.14
21742;BME280;11033;47.490;11.116;2023-02-13T15:08:52;94731.94;;;19.15;34.02
21742;BME280;11033;47.490;11.116;2023-02-13T15:11:39;94737.25;;;19.02;33.04
21742;BME280;11033;47.490;11.116;2023-02-13T15:14:32;94735.63;;;19.00;32.57
21742;BME280;11033;47.490;11.116;2023-02-13T15:17:13;94741.06;;;19.93;32.48
21742;BME280;11033;47.490;11.116;2023-02-13T15:19:44;94737.25;;;20.53;32.09
21742;BME280;11033;47.490;11.116;2023-02-13T15:22:46;94747.66;;;19.77;32.61